Overseas Boston — WJBU — position and weather

sailwx.info

Track history (hours):
 
Tides and Currents Weather Stations Pressure Air Temp Water Temp Dewpoint Dewpoint Depression Visibility Wind Speed Wind Dir Waves Ship Positions

Overseas Boston

Owner: ASC Leasing VI, Inc., Philadelphia, PA. More information available from US FCC via Universal Licensing System and Coast Guard Vessel Documentation Center.

Last reported at 2014-Oct-29 01:32 UTC. Time now 2014-Nov-01 12:42 UTC.
Position N 38°03' W 122°05'.

Length 183 m; draft 10.1 m.

Type: Tanker. MMSI: 338221000.

Date/timePositionNaut miles runAvg speedWind from/ knotsBaromVisibWave heightAir tempDewpointWater temp
2014-Oct-29 01:32N 38°03' W 122°05'4 3.5
2014-Oct-29 00:27N 38°02' W 122°10'5 5.8
2014-Oct-28 23:33N 38°04' W 122°17'9 8.7
2014-Oct-28 22:34N 37°59' W 122°26'9 9.0
2014-Oct-28 21:33N 37°50' W 122°28'1211.8
2014-Oct-28 20:33N 37°44' W 122°41'1110.8
2014-Oct-28 19:33N 37°38' W 122°52'1111.3
2014-Oct-28 18:33N 37°32' W 123°04'1312.6
2014-Oct-28 17:33N 37°22' W 123°14'1111.4
2014-Oct-28 16:33N 37°13' W 123°23'1110.2
2014-Oct-28 15:31N 37°05' W 123°32'510.2
2014-Oct-28 15:00N 37°00' W 123°30'817.5 360 / 191019.327.0 1.017.213.6
2014-Oct-28 14:33N 36°55' W 123°37'1413.3
2014-Oct-28 13:30N 36°41' W 123°37'1313.0
2014-Oct-28 12:31N 36°28' W 123°36'1426.6
2014-Oct-28 12:00N 36°18' W 123°24'913.2 340 / 251018.527.0 17.212.5
2014-Oct-28 11:18N 36°12' W 123°32'1013.5
2014-Oct-28 10:33N 36°02' W 123°30'1313.5
2014-Oct-28 09:33N 35°49' W 123°27'1313.1
2014-Oct-28 08:32N 35°36' W 123°24'1312.9
2014-Oct-28 07:29N 35°22' W 123°21'2415.7
2014-Oct-28 06:00N 35°06' W 123°00'2 4.3 360 / 241018.310.8 1.017.2
2014-Oct-28 05:32N 35°05' W 122°58'1312.7
2014-Oct-28 04:33N 34°56' W 122°47'2315.1
2014-Oct-28 03:00N 34°42' W 122°24'3 4.8 360 / 241015.610.8 1.017.2
2014-Oct-28 02:25N 34°39' W 122°23'1112.2
2014-Oct-28 01:33N 34°33' W 122°13'2516.2
2014-Oct-28 00:00N 34°18' W 121°48'3 6.1 340 / 221014.510.8 3.017.213.621.1
2014-Oct-27 23:33N 34°17' W 121°51'1312.5
2014-Oct-27 22:33N 34°08' W 121°39'2512.7
2014-Oct-27 20:33N 33°52' W 121°16'1312.7
2014-Oct-27 19:33N 33°44' W 121°05'1312.7
2014-Oct-27 18:33N 33°36' W 120°53'1526.6
2014-Oct-27 18:00N 33°30' W 120°36'41 9.1 340 / 241014.410.8 1.020.0
2014-Oct-27 13:33N 33°33' W 119°48'1611.6
2014-Oct-27 12:08N 33°37' W 119°28'811.6
2014-Oct-27 11:27N 33°38' W 119°19'4711.5
2014-Oct-27 07:24N 33°38' W 118°23'911.0
2014-Oct-27 06:33N 33°40' W 118°12'7 6.6
2014-Oct-27 05:33N 33°46' W 118°13'0 0.4
2014-Oct-27 04:33N 33°46' W 118°13'0 0.0
2014-Oct-27 03:33N 33°46' W 118°13'0 0.0
2014-Oct-27 02:33N 33°46' W 118°13'0 0.0
2014-Oct-27 01:33N 33°46' W 118°13'0 0.0
2014-Oct-27 00:33N 33°46' W 118°13'0 0.0
2014-Oct-26 23:33N 33°46' W 118°13'0 0.0
2014-Oct-26 22:33N 33°46' W 118°13'0 0.0
2014-Oct-26 21:33N 33°46' W 118°13'0 0.0
2014-Oct-26 20:33N 33°46' W 118°13'0 0.0
2014-Oct-26 19:33N 33°46' W 118°13'0 0.0
2014-Oct-26 18:33N 33°46' W 118°13'0 0.0
2014-Oct-26 17:33N 33°46' W 118°13'0 0.0
2014-Oct-26 16:33N 33°46' W 118°13'0 0.0
2014-Oct-26 15:33N 33°46' W 118°13'0 0.0
2014-Oct-26 14:33N 33°46' W 118°13'0 0.0
2014-Oct-26 13:33N 33°46' W 118°13'0 0.0
2014-Oct-26 12:33N 33°46' W 118°13'0 0.0
2014-Oct-26 11:33N 33°46' W 118°13'0 0.0
2014-Oct-26 10:33N 33°46' W 118°13'0 0.0
2014-Oct-26 09:33N 33°46' W 118°13'0 0.0
2014-Oct-26 08:33N 33°46' W 118°13'0 0.0
2014-Oct-26 07:30N 33°46' W 118°13'0 0.0
2014-Oct-26 06:33N 33°46' W 118°13'0 0.0
2014-Oct-26 05:33N 33°46' W 118°13'0 0.0
2014-Oct-26 04:33N 33°46' W 118°13'0 0.0
2014-Oct-26 03:33N 33°46' W 118°13'0 0.0
2014-Oct-26 02:33N 33°46' W 118°13'0 0.0
2014-Oct-26 01:33N 33°46' W 118°13'0 0.0
2014-Oct-26 00:33N 33°46' W 118°13'0 0.0
2014-Oct-25 23:33N 33°46' W 118°13'0 0.4
2014-Oct-25 22:32N 33°46' W 118°13'0 0.0
2014-Oct-25 21:32N 33°46' W 118°13'0 0.0
2014-Oct-25 20:32N 33°46' W 118°13'0 0.0
2014-Oct-25 19:32N 33°46' W 118°13'0 0.0
2014-Oct-25 18:32N 33°46' W 118°13'0 0.0
2014-Oct-25 17:32N 33°46' W 118°13'0 0.0
2014-Oct-25 16:32N 33°46' W 118°13'0 0.0
2014-Oct-25 15:32N 33°46' W 118°13'0 0.0
2014-Oct-25 14:32N 33°46' W 118°13'0 0.0
2014-Oct-25 13:32N 33°46' W 118°13'0 0.0
2014-Oct-25 12:32N 33°46' W 118°13'0 0.0
2014-Oct-25 11:32N 33°46' W 118°13'0 0.0
2014-Oct-25 10:32N 33°46' W 118°13'0 0.0
2014-Oct-25 09:32N 33°46' W 118°13'0 0.0
2014-Oct-25 08:32N 33°46' W 118°13'0 0.0
2014-Oct-25 07:32N 33°46' W 118°13'0 0.0
2014-Oct-25 06:32N 33°46' W 118°13'0 0.0
2014-Oct-25 05:32N 33°46' W 118°13'0 0.0
2014-Oct-25 04:32N 33°46' W 118°13'0 0.0
2014-Oct-25 03:32N 33°46' W 118°13'0 0.0
2014-Oct-25 02:32N 33°46' W 118°13'0 0.0
2014-Oct-25 01:17N 33°46' W 118°13'0 0.0
2014-Oct-25 00:32N 33°46' W 118°13'0 0.0
2014-Oct-24 23:32N 33°46' W 118°13'0 0.0
2014-Oct-24 22:32N 33°46' W 118°13'0 0.0
2014-Oct-24 21:32N 33°46' W 118°13'0 0.0
2014-Oct-24 20:32N 33°46' W 118°13'0 0.0
2014-Oct-24 19:32N 33°46' W 118°13'0 0.0
2014-Oct-24 18:32N 33°46' W 118°13'0 0.0
2014-Oct-24 17:32N 33°46' W 118°13'0 0.0
2014-Oct-24 16:32N 33°46' W 118°13'0 0.0
2014-Oct-24 15:32N 33°46' W 118°13'0 0.0
2014-Oct-24 14:32N 33°46' W 118°13'0 0.0
2014-Oct-24 13:32N 33°46' W 118°13'0 0.0
2014-Oct-24 12:32N 33°46' W 118°13'0 0.0
2014-Oct-24 11:32N 33°46' W 118°13'0 0.0
2014-Oct-24 10:32N 33°46' W 118°13'0 0.0
2014-Oct-24 09:32N 33°46' W 118°13'0 0.0
2014-Oct-24 08:32N 33°46' W 118°13'0 0.0
2014-Oct-24 07:32N 33°46' W 118°13'0 0.0
2014-Oct-24 06:29N 33°46' W 118°13'0 0.0
2014-Oct-24 05:32N 33°46' W 118°13'0 0.0
2014-Oct-24 04:32N 33°46' W 118°13'0 0.0
2014-Oct-24 03:32N 33°46' W 118°13'0 0.0
2014-Oct-24 02:32N 33°46' W 118°13'0 0.0
2014-Oct-24 01:29N 33°46' W 118°13'0 0.0
2014-Oct-24 00:32N 33°46' W 118°13'0 0.0
2014-Oct-23 23:32N 33°46' W 118°13'0 0.0
2014-Oct-23 22:32N 33°46' W 118°13'0 0.0
2014-Oct-23 21:32N 33°46' W 118°13'0 0.0
2014-Oct-23 20:29N 33°46' W 118°13'0 0.0
2014-Oct-23 19:32N 33°46' W 118°13'0 0.0
2014-Oct-23 18:32N 33°46' W 118°13'0 0.0
2014-Oct-23 17:32N 33°46' W 118°13'0 0.0
2014-Oct-23 16:32N 33°46' W 118°13'0 0.0
2014-Oct-23 15:29N 33°46' W 118°13'0 0.0
2014-Oct-23 14:32N 33°46' W 118°13'0 0.0
2014-Oct-23 13:32N 33°46' W 118°13'0 0.0
2014-Oct-23 12:32N 33°46' W 118°13'0 0.0
2014-Oct-23 11:32N 33°46' W 118°13'0 0.0
2014-Oct-23 10:32N 33°46' W 118°13'0 0.0
2014-Oct-23 09:32N 33°46' W 118°13'0 0.0
2014-Oct-23 08:32N 33°46' W 118°13'0 0.0
2014-Oct-23 07:32N 33°46' W 118°13'0 0.0
2014-Oct-23 06:32N 33°46' W 118°13'0 0.0
2014-Oct-23 05:32N 33°46' W 118°13'0 0.0
2014-Oct-23 04:32N 33°46' W 118°13'0 0.0
2014-Oct-23 03:32N 33°46' W 118°13'0 0.0
2014-Oct-23 02:32N 33°46' W 118°13'0 0.0
2014-Oct-23 01:32N 33°46' W 118°13'0 0.0
2014-Oct-23 00:32N 33°46' W 118°13'0 0.0
2014-Oct-22 23:32N 33°46' W 118°13'0 0.0
2014-Oct-22 22:32N 33°46' W 118°13'0 0.0
2014-Oct-22 21:32N 33°46' W 118°13'0 0.0
2014-Oct-22 20:32N 33°46' W 118°13'0 0.0
2014-Oct-22 19:32N 33°46' W 118°13'0 0.0
2014-Oct-22 18:32N 33°46' W 118°13'0 0.0
2014-Oct-22 17:32N 33°46' W 118°13'0 0.0
2014-Oct-22 16:32N 33°46' W 118°13'0 0.0
2014-Oct-22 15:32N 33°46' W 118°13'0 0.0
2014-Oct-22 14:32N 33°46' W 118°13'0 0.0
2014-Oct-22 13:32N 33°46' W 118°13'0 0.0
2014-Oct-22 12:32N 33°46' W 118°13'0 0.0
2014-Oct-22 11:32N 33°46' W 118°13'0 0.0
2014-Oct-22 10:29N 33°46' W 118°13'0 0.0
2014-Oct-22 09:32N 33°46' W 118°13'0 0.0
2014-Oct-22 08:32N 33°46' W 118°13'0 0.0
2014-Oct-22 07:32N 33°46' W 118°13'0 0.0
2014-Oct-22 06:32N 33°46' W 118°13'0 0.0
2014-Oct-22 05:32N 33°46' W 118°13'0 0.0
2014-Oct-22 04:32N 33°46' W 118°13'0 0.0
2014-Oct-22 03:32N 33°46' W 118°13'0 0.0
2014-Oct-22 02:32N 33°46' W 118°13'0 0.0
2014-Oct-22 01:32N 33°46' W 118°13'0 0.0
2014-Oct-22 00:32N 33°46' W 118°13'0 0.0
2014-Oct-21 23:32N 33°46' W 118°13'0 0.0
2014-Oct-21 22:32N 33°46' W 118°13'0 0.0
2014-Oct-21 21:32N 33°46' W 118°13'0 0.0
2014-Oct-21 20:32N 33°46' W 118°13'0 0.0
2014-Oct-21 19:29N 33°46' W 118°13'0 0.0
2014-Oct-21 18:32N 33°46' W 118°13'0 0.0
2014-Oct-21 17:32N 33°46' W 118°13'0 0.0
2014-Oct-21 16:32N 33°46' W 118°13'0 0.0
2014-Oct-21 15:32N 33°46' W 118°13'0 0.0
2014-Oct-21 14:32N 33°46' W 118°13'0 0.0
2014-Oct-21 13:32N 33°46' W 118°13'0 0.0
2014-Oct-21 12:32N 33°46' W 118°13'0 0.0
2014-Oct-21 11:32N 33°46' W 118°13'0 0.0
2014-Oct-21 10:32N 33°46' W 118°13'0 0.0
2014-Oct-21 09:32N 33°46' W 118°13'0 0.0
2014-Oct-21 08:32N 33°46' W 118°13'0 0.0
2014-Oct-21 07:32N 33°46' W 118°13'0 0.0
2014-Oct-21 06:32N 33°46' W 118°13'0 0.0
2014-Oct-21 05:32N 33°46' W 118°13'0 0.0
2014-Oct-21 04:32N 33°46' W 118°13'0 0.0
2014-Oct-21 03:32N 33°46' W 118°13'0 0.0
2014-Oct-21 02:32N 33°46' W 118°13'0 0.0
2014-Oct-21 01:32N 33°46' W 118°13'0 0.0
2014-Oct-21 00:32N 33°46' W 118°13'0 0.0
2014-Oct-20 23:32N 33°46' W 118°13'0 0.0
2014-Oct-20 22:29N 33°46' W 118°13'0 0.0
2014-Oct-20 21:29N 33°46' W 118°13'0 0.0
2014-Oct-20 20:29N 33°46' W 118°13'0 0.0
2014-Oct-20 19:23N 33°46' W 118°13'0 0.0
2014-Oct-20 18:32N 33°46' W 118°13'0 0.0
2014-Oct-20 17:32N 33°46' W 118°13'0 0.0
2014-Oct-20 16:32N 33°46' W 118°13'0 0.0
2014-Oct-20 15:32N 33°46' W 118°13'0 0.0
2014-Oct-20 14:32N 33°46' W 118°13'0 0.0
2014-Oct-20 13:32N 33°46' W 118°13'0 0.0
2014-Oct-20 12:32N 33°46' W 118°13'0 0.0
2014-Oct-20 11:32N 33°46' W 118°13'0 0.0
2014-Oct-20 10:32N 33°46' W 118°13'0 0.0
2014-Oct-20 09:32N 33°46' W 118°13'0 0.0
2014-Oct-20 08:32N 33°46' W 118°13'0 0.0
2014-Oct-20 07:32N 33°46' W 118°13'0 0.0
2014-Oct-20 06:32N 33°46' W 118°13'0 0.0
2014-Oct-20 05:32N 33°46' W 118°13'0 0.0
2014-Oct-20 04:26N 33°46' W 118°13'0 0.0
2014-Oct-20 03:32N 33°46' W 118°13'0 0.0
2014-Oct-20 02:32N 33°46' W 118°13'0 0.0
2014-Oct-20 01:32N 33°46' W 118°13'0 0.0
2014-Oct-20 00:32N 33°46' W 118°13'0 0.0
2014-Oct-19 23:32N 33°46' W 118°13'0 0.0
2014-Oct-19 22:32N 33°46' W 118°13'0 0.0
2014-Oct-19 21:32N 33°46' W 118°13'0 0.0
2014-Oct-19 20:32N 33°46' W 118°13'0 0.0
2014-Oct-19 19:32N 33°46' W 118°13'1 0.6
2014-Oct-19 18:33N 33°46' W 118°13'5 5.3
2014-Oct-19 17:34N 33°41' W 118°11'7 7.3
2014-Oct-19 16:32N 33°36' W 118°17'4310.8
2014-Oct-19 12:33N 33°38' W 119°09'1412.1
2014-Oct-19 11:26N 33°35' W 119°25'1112.9
2014-Oct-19 10:33N 33°33' W 119°38'2812.7
2014-Oct-19 08:20N 33°28' W 120°11'911.9
2014-Oct-19 07:33N 33°26' W 120°22'  
Track history (hours):
 
Tides and Currents Weather Stations Pressure Air Temp Water Temp Dewpoint Dewpoint Depression Visibility Wind Speed Wind Dir Waves Ship Positions

Overseas Boston

Owner: ASC Leasing VI, Inc., Philadelphia, PA. More information available from US FCC via Universal Licensing System and Coast Guard Vessel Documentation Center.

Last reported at 2014-Oct-29 01:32 UTC. Time now 2014-Nov-01 12:42 UTC.
Position N 38°03' W 122°05'.

Length 183 m; draft 10.1 m.

Type: Tanker. MMSI: 338221000.

Date/timePositionNaut miles runAvg speedWind from/ knotsBaromVisibWave heightAir tempDewpointWater temp
2014-Oct-29 01:32N 38°03' W 122°05'4 3.5
2014-Oct-29 00:27N 38°02' W 122°10'5 5.8
2014-Oct-28 23:33N 38°04' W 122°17'9 8.7
2014-Oct-28 22:34N 37°59' W 122°26'9 9.0
2014-Oct-28 21:33N 37°50' W 122°28'1211.8
2014-Oct-28 20:33N 37°44' W 122°41'1110.8
2014-Oct-28 19:33N 37°38' W 122°52'1111.3
2014-Oct-28 18:33N 37°32' W 123°04'1312.6
2014-Oct-28 17:33N 37°22' W 123°14'1111.4
2014-Oct-28 16:33N 37°13' W 123°23'1110.2
2014-Oct-28 15:31N 37°05' W 123°32'510.2
2014-Oct-28 15:00N 37°00' W 123°30'817.5 360 / 191019.327.0 1.017.213.6
2014-Oct-28 14:33N 36°55' W 123°37'1413.3
2014-Oct-28 13:30N 36°41' W 123°37'1313.0
2014-Oct-28 12:31N 36°28' W 123°36'1426.6
2014-Oct-28 12:00N 36°18' W 123°24'913.2 340 / 251018.527.0 17.212.5
2014-Oct-28 11:18N 36°12' W 123°32'1013.5
2014-Oct-28 10:33N 36°02' W 123°30'1313.5
2014-Oct-28 09:33N 35°49' W 123°27'1313.1
2014-Oct-28 08:32N 35°36' W 123°24'1312.9
2014-Oct-28 07:29N 35°22' W 123°21'2415.7
2014-Oct-28 06:00N 35°06' W 123°00'2 4.3 360 / 241018.310.8 1.017.2
2014-Oct-28 05:32N 35°05' W 122°58'1312.7
2014-Oct-28 04:33N 34°56' W 122°47'2315.1
2014-Oct-28 03:00N 34°42' W 122°24'3 4.8 360 / 241015.610.8 1.017.2
2014-Oct-28 02:25N 34°39' W 122°23'1112.2
2014-Oct-28 01:33N 34°33' W 122°13'2516.2
2014-Oct-28 00:00N 34°18' W 121°48'3 6.1 340 / 221014.510.8 3.017.213.621.1
2014-Oct-27 23:33N 34°17' W 121°51'1312.5
2014-Oct-27 22:33N 34°08' W 121°39'2512.7
2014-Oct-27 20:33N 33°52' W 121°16'1312.7
2014-Oct-27 19:33N 33°44' W 121°05'1312.7
2014-Oct-27 18:33N 33°36' W 120°53'1526.6
2014-Oct-27 18:00N 33°30' W 120°36'41 9.1 340 / 241014.410.8 1.020.0
2014-Oct-27 13:33N 33°33' W 119°48'1611.6
2014-Oct-27 12:08N 33°37' W 119°28'811.6
2014-Oct-27 11:27N 33°38' W 119°19'4711.5
2014-Oct-27 07:24N 33°38' W 118°23'911.0
2014-Oct-27 06:33N 33°40' W 118°12'7 6.6
2014-Oct-27 05:33N 33°46' W 118°13'0 0.4
2014-Oct-27 04:33N 33°46' W 118°13'0 0.0
2014-Oct-27 03:33N 33°46' W 118°13'0 0.0
2014-Oct-27 02:33N 33°46' W 118°13'0 0.0
2014-Oct-27 01:33N 33°46' W 118°13'0 0.0
2014-Oct-27 00:33N 33°46' W 118°13'0 0.0
2014-Oct-26 23:33N 33°46' W 118°13'0 0.0
2014-Oct-26 22:33N 33°46' W 118°13'0 0.0
2014-Oct-26 21:33N 33°46' W 118°13'0 0.0
2014-Oct-26 20:33N 33°46' W 118°13'0 0.0
2014-Oct-26 19:33N 33°46' W 118°13'0 0.0
2014-Oct-26 18:33N 33°46' W 118°13'0 0.0
2014-Oct-26 17:33N 33°46' W 118°13'0 0.0
2014-Oct-26 16:33N 33°46' W 118°13'0 0.0
2014-Oct-26 15:33N 33°46' W 118°13'0 0.0
2014-Oct-26 14:33N 33°46' W 118°13'0 0.0
2014-Oct-26 13:33N 33°46' W 118°13'0 0.0
2014-Oct-26 12:33N 33°46' W 118°13'0 0.0
2014-Oct-26 11:33N 33°46' W 118°13'0 0.0
2014-Oct-26 10:33N 33°46' W 118°13'0 0.0
2014-Oct-26 09:33N 33°46' W 118°13'0 0.0
2014-Oct-26 08:33N 33°46' W 118°13'0 0.0
2014-Oct-26 07:30N 33°46' W 118°13'0 0.0
2014-Oct-26 06:33N 33°46' W 118°13'0 0.0
2014-Oct-26 05:33N 33°46' W 118°13'0 0.0
2014-Oct-26 04:33N 33°46' W 118°13'0 0.0
2014-Oct-26 03:33N 33°46' W 118°13'0 0.0
2014-Oct-26 02:33N 33°46' W 118°13'0 0.0
2014-Oct-26 01:33N 33°46' W 118°13'0 0.0
2014-Oct-26 00:33N 33°46' W 118°13'0 0.0
2014-Oct-25 23:33N 33°46' W 118°13'0 0.4
2014-Oct-25 22:32N 33°46' W 118°13'0 0.0
2014-Oct-25 21:32N 33°46' W 118°13'0 0.0
2014-Oct-25 20:32N 33°46' W 118°13'0 0.0
2014-Oct-25 19:32N 33°46' W 118°13'0 0.0
2014-Oct-25 18:32N 33°46' W 118°13'0 0.0
2014-Oct-25 17:32N 33°46' W 118°13'0 0.0
2014-Oct-25 16:32N 33°46' W 118°13'0 0.0
2014-Oct-25 15:32N 33°46' W 118°13'0 0.0
2014-Oct-25 14:32N 33°46' W 118°13'0 0.0
2014-Oct-25 13:32N 33°46' W 118°13'0 0.0
2014-Oct-25 12:32N 33°46' W 118°13'0 0.0
2014-Oct-25 11:32N 33°46' W 118°13'0 0.0
2014-Oct-25 10:32N 33°46' W 118°13'0 0.0
2014-Oct-25 09:32N 33°46' W 118°13'0 0.0
2014-Oct-25 08:32N 33°46' W 118°13'0 0.0
2014-Oct-25 07:32N 33°46' W 118°13'0 0.0
2014-Oct-25 06:32N 33°46' W 118°13'0 0.0
2014-Oct-25 05:32N 33°46' W 118°13'0 0.0
2014-Oct-25 04:32N 33°46' W 118°13'0 0.0
2014-Oct-25 03:32N 33°46' W 118°13'0 0.0
2014-Oct-25 02:32N 33°46' W 118°13'0 0.0
2014-Oct-25 01:17N 33°46' W 118°13'0 0.0
2014-Oct-25 00:32N 33°46' W 118°13'0 0.0
2014-Oct-24 23:32N 33°46' W 118°13'0 0.0
2014-Oct-24 22:32N 33°46' W 118°13'0 0.0
2014-Oct-24 21:32N 33°46' W 118°13'0 0.0
2014-Oct-24 20:32N 33°46' W 118°13'0 0.0
2014-Oct-24 19:32N 33°46' W 118°13'0 0.0
2014-Oct-24 18:32N 33°46' W 118°13'0 0.0
2014-Oct-24 17:32N 33°46' W 118°13'0 0.0
2014-Oct-24 16:32N 33°46' W 118°13'0 0.0
2014-Oct-24 15:32N 33°46' W 118°13'0 0.0
2014-Oct-24 14:32N 33°46' W 118°13'0 0.0
2014-Oct-24 13:32N 33°46' W 118°13'0 0.0
2014-Oct-24 12:32N 33°46' W 118°13'0 0.0
2014-Oct-24 11:32N 33°46' W 118°13'0 0.0
2014-Oct-24 10:32N 33°46' W 118°13'0 0.0
2014-Oct-24 09:32N 33°46' W 118°13'0 0.0
2014-Oct-24 08:32N 33°46' W 118°13'0 0.0
2014-Oct-24 07:32N 33°46' W 118°13'0 0.0
2014-Oct-24 06:29N 33°46' W 118°13'0 0.0
2014-Oct-24 05:32N 33°46' W 118°13'0 0.0
2014-Oct-24 04:32N 33°46' W 118°13'0 0.0
2014-Oct-24 03:32N 33°46' W 118°13'0 0.0
2014-Oct-24 02:32N 33°46' W 118°13'0 0.0
2014-Oct-24 01:29N 33°46' W 118°13'0 0.0
2014-Oct-24 00:32N 33°46' W 118°13'0 0.0
2014-Oct-23 23:32N 33°46' W 118°13'0 0.0
2014-Oct-23 22:32N 33°46' W 118°13'0 0.0
2014-Oct-23 21:32N 33°46' W 118°13'0 0.0
2014-Oct-23 20:29N 33°46' W 118°13'0 0.0
2014-Oct-23 19:32N 33°46' W 118°13'0 0.0
2014-Oct-23 18:32N 33°46' W 118°13'0 0.0
2014-Oct-23 17:32N 33°46' W 118°13'0 0.0
2014-Oct-23 16:32N 33°46' W 118°13'0 0.0
2014-Oct-23 15:29N 33°46' W 118°13'0 0.0
2014-Oct-23 14:32N 33°46' W 118°13'0 0.0
2014-Oct-23 13:32N 33°46' W 118°13'0 0.0
2014-Oct-23 12:32N 33°46' W 118°13'0 0.0
2014-Oct-23 11:32N 33°46' W 118°13'0 0.0
2014-Oct-23 10:32N 33°46' W 118°13'0 0.0
2014-Oct-23 09:32N 33°46' W 118°13'0 0.0
2014-Oct-23 08:32N 33°46' W 118°13'0 0.0
2014-Oct-23 07:32N 33°46' W 118°13'0 0.0
2014-Oct-23 06:32N 33°46' W 118°13'0 0.0
2014-Oct-23 05:32N 33°46' W 118°13'0 0.0
2014-Oct-23 04:32N 33°46' W 118°13'0 0.0
2014-Oct-23 03:32N 33°46' W 118°13'0 0.0
2014-Oct-23 02:32N 33°46' W 118°13'0 0.0
2014-Oct-23 01:32N 33°46' W 118°13'0 0.0
2014-Oct-23 00:32N 33°46' W 118°13'0 0.0
2014-Oct-22 23:32N 33°46' W 118°13'0 0.0
2014-Oct-22 22:32N 33°46' W 118°13'0 0.0
2014-Oct-22 21:32N 33°46' W 118°13'0 0.0
2014-Oct-22 20:32N 33°46' W 118°13'0 0.0
2014-Oct-22 19:32N 33°46' W 118°13'0 0.0
2014-Oct-22 18:32N 33°46' W 118°13'0 0.0
2014-Oct-22 17:32N 33°46' W 118°13'0 0.0
2014-Oct-22 16:32N 33°46' W 118°13'0 0.0
2014-Oct-22 15:32N 33°46' W 118°13'0 0.0
2014-Oct-22 14:32N 33°46' W 118°13'0 0.0
2014-Oct-22 13:32N 33°46' W 118°13'0 0.0
2014-Oct-22 12:32N 33°46' W 118°13'0 0.0
2014-Oct-22 11:32N 33°46' W 118°13'0 0.0
2014-Oct-22 10:29N 33°46' W 118°13'0 0.0
2014-Oct-22 09:32N 33°46' W 118°13'0 0.0
2014-Oct-22 08:32N 33°46' W 118°13'0 0.0
2014-Oct-22 07:32N 33°46' W 118°13'0 0.0
2014-Oct-22 06:32N 33°46' W 118°13'0 0.0
2014-Oct-22 05:32N 33°46' W 118°13'0 0.0
2014-Oct-22 04:32N 33°46' W 118°13'0 0.0
2014-Oct-22 03:32N 33°46' W 118°13'0 0.0
2014-Oct-22 02:32N 33°46' W 118°13'0 0.0
2014-Oct-22 01:32N 33°46' W 118°13'0 0.0
2014-Oct-22 00:32N 33°46' W 118°13'0 0.0
2014-Oct-21 23:32N 33°46' W 118°13'0 0.0
2014-Oct-21 22:32N 33°46' W 118°13'0 0.0
2014-Oct-21 21:32N 33°46' W 118°13'0 0.0
2014-Oct-21 20:32N 33°46' W 118°13'0 0.0
2014-Oct-21 19:29N 33°46' W 118°13'0 0.0
2014-Oct-21 18:32N 33°46' W 118°13'0 0.0
2014-Oct-21 17:32N 33°46' W 118°13'0 0.0
2014-Oct-21 16:32N 33°46' W 118°13'0 0.0
2014-Oct-21 15:32N 33°46' W 118°13'0 0.0
2014-Oct-21 14:32N 33°46' W 118°13'0 0.0
2014-Oct-21 13:32N 33°46' W 118°13'0 0.0
2014-Oct-21 12:32N 33°46' W 118°13'0 0.0
2014-Oct-21 11:32N 33°46' W 118°13'0 0.0
2014-Oct-21 10:32N 33°46' W 118°13'0 0.0
2014-Oct-21 09:32N 33°46' W 118°13'0 0.0
2014-Oct-21 08:32N 33°46' W 118°13'0 0.0
2014-Oct-21 07:32N 33°46' W 118°13'0 0.0
2014-Oct-21 06:32N 33°46' W 118°13'0 0.0
2014-Oct-21 05:32N 33°46' W 118°13'0 0.0
2014-Oct-21 04:32N 33°46' W 118°13'0 0.0
2014-Oct-21 03:32N 33°46' W 118°13'0 0.0
2014-Oct-21 02:32N 33°46' W 118°13'0 0.0
2014-Oct-21 01:32N 33°46' W 118°13'0 0.0
2014-Oct-21 00:32N 33°46' W 118°13'0 0.0
2014-Oct-20 23:32N 33°46' W 118°13'0 0.0
2014-Oct-20 22:29N 33°46' W 118°13'0 0.0
2014-Oct-20 21:29N 33°46' W 118°13'0 0.0
2014-Oct-20 20:29N 33°46' W 118°13'0 0.0
2014-Oct-20 19:23N 33°46' W 118°13'0 0.0
2014-Oct-20 18:32N 33°46' W 118°13'0 0.0
2014-Oct-20 17:32N 33°46' W 118°13'0 0.0
2014-Oct-20 16:32N 33°46' W 118°13'0 0.0
2014-Oct-20 15:32N 33°46' W 118°13'0 0.0
2014-Oct-20 14:32N 33°46' W 118°13'0 0.0
2014-Oct-20 13:32N 33°46' W 118°13'0 0.0
2014-Oct-20 12:32N 33°46' W 118°13'0 0.0
2014-Oct-20 11:32N 33°46' W 118°13'0 0.0
2014-Oct-20 10:32N 33°46' W 118°13'0 0.0
2014-Oct-20 09:32N 33°46' W 118°13'0 0.0
2014-Oct-20 08:32N 33°46' W 118°13'0 0.0
2014-Oct-20 07:32N 33°46' W 118°13'0 0.0
2014-Oct-20 06:32N 33°46' W 118°13'0 0.0
2014-Oct-20 05:32N 33°46' W 118°13'0 0.0
2014-Oct-20 04:26N 33°46' W 118°13'0 0.0
2014-Oct-20 03:32N 33°46' W 118°13'0 0.0
2014-Oct-20 02:32N 33°46' W 118°13'0 0.0
2014-Oct-20 01:32N 33°46' W 118°13'0 0.0
2014-Oct-20 00:32N 33°46' W 118°13'0 0.0
2014-Oct-19 23:32N 33°46' W 118°13'0 0.0
2014-Oct-19 22:32N 33°46' W 118°13'0 0.0
2014-Oct-19 21:32N 33°46' W 118°13'0 0.0
2014-Oct-19 20:32N 33°46' W 118°13'0 0.0
2014-Oct-19 19:32N 33°46' W 118°13'1 0.6
2014-Oct-19 18:33N 33°46' W 118°13'5 5.3
2014-Oct-19 17:34N 33°41' W 118°11'7 7.3
2014-Oct-19 16:32N 33°36' W 118°17'4310.8
2014-Oct-19 12:33N 33°38' W 119°09'1412.1
2014-Oct-19 11:26N 33°35' W 119°25'1112.9
2014-Oct-19 10:33N 33°33' W 119°38'2812.7
2014-Oct-19 08:20N 33°28' W 120°11'911.9
2014-Oct-19 07:33N 33°26' W 120°22'  

Dump ship's entire track history